Portada
METAR-TAF:

METAR-TAF

Aeropuertos :

Aeropuerto Internacional Gengis Kan

Ulán Bator, Mongolia

latitud: 47-55N, longitud: 106-52E, altitud: 1306 m

Observación

El informe se hizo hace 31 minutos, a las 08:30 UTC
Viento 10 kt del oeste-suroeste
Temperatura 25°C
Humedad 15%
Presión 1020 hPa
Visibilidad 10 km o más
Escasas nubes a una altura de 3300 ft

METAR: ZMUB 240830Z 24005MPS 9999 FEW033 25/M03 Q1020 NOSIG RMK QFE657.6 14 MOP

Hora: 18:01 (09:01 UTC)

Pronóstico

El informe se hizo hace 4 horas y 21 minutos, a las 04:40 UTC
Pronóstico válido del 24 a las 06 UTC al 25 a las 12 UTC
Viento 4 kt con dirección variable
Visibilidad 10 km o más
Nubes dispersas a una altura de 10000 ft

TAF: ZMUB 240440Z 2406/2512 VRB02MPS 9999 SCT100 TX26/2407Z TN00/2421Z

Observaciones y pronósticos meteorológicos de más de 4000 aeropuertos (mensajes METAR y TAF).

Los puntos amarillos y rojos representan las estaciones disponibles.

Ponga el ratón en el punto deseado para ver el nombre de la estación.

Haga clic para ver las observaciones y los pronósticos meteorológicos.

Para cambiar el mapa : haga clic en los botones verdes con una cruz de color negro para hacer un zoom, en el botón verde con un guión para alejar o en las flechas verdes para mapas adyacentes.


METAR-TAF: